LKTBLKNA

Guest
Details From LKTB - Turany
To LKNA - NAMEST
Flight Number -
Tags generated
Created
Modified
Stats Distance 22 nm / 41 km
Max Altitude 0 ft / 0 m
Waypoints 3
Social Downloads 0
Likes 0
Share VATSIM

Download

Looking for another format? Having issues loading an existing format? Contact us
Advertisement - Login to hide

Notes

Basic altitude profile: - Ascent Rate: 2500ft/min - Ascent Speed: 250kts - Cruise Altitude: 35000ft - Cruise Speed: 420kts - Descent Rate: 1500ft/min - Descent Speed: 250kts Options: - Use NATs: yes - Use PACOTS: yes - Use low airways: yes - Use high airways: yes

Route

LKTB BNO LKNA

ID Type Via Altitude Latitude Longitude Leg Dist Tot Dist Heading (true) Name
O LKTB APT - 0 ft / 0 m 49.15102˚ 16.69317˚ - 0 nm - Turany
BNO VOR - 0 ft / 0 m 49.15006˚ 16.69258˚ 0 nm 0 nm 202° / 202° BRNO VOR-DME
O LKNA APT - 0 ft / 0 m 49.16621˚ 16.12438˚ 22 nm 22 nm 273° / 272° NAMEST

Altitude Profile

Advertisement - Login to hide

LKTB

Details ICAO LKTB (BRQ)
Name Turany
Region Czech Republic
Timezone Europe/Prague (UTC+1.0)
Stats Elevation 777 ft / 237 m (AMSL)
Location 49.151016° 16.693171°
Runways 2
Magnetic Variation 4.378° E

METAR

LKTB 160530Z 34004KT 300V040 CAVOK M01/M02 Q1001 NOSIG

Decode

TAF

Not found

Departure Runways

ID Width Length Bearing (true) Bearing (mag) Surface Threshold Offset Overrun Length
09 98 ft / 30 m 3,272 ft / 997 m 97.50° 93.12° Grass 0 ft / 0 m 0 ft / 0 m
10 197 ft / 60 m 8,674 ft / 2,644 m 97.52° 93.14° Concrete 0 ft / 0 m 0 ft / 0 m
27 98 ft / 30 m 3,272 ft / 997 m 277.51° 273.13° Grass 0 ft / 0 m 0 ft / 0 m
28 197 ft / 60 m 8,674 ft / 2,644 m 277.55° 273.17° Concrete 0 ft / 0 m 0 ft / 0 m

LKNA

Details ICAO LKNA
Name NAMEST
Region Czech Republic
Timezone Europe/Prague (UTC+1.0)
Stats Elevation 1,548 ft / 472 m (AMSL)
Location 49.166205° 16.124376°
Runways 1
Magnetic Variation 4.246° E

METAR

LKNA 160500Z 31006KT CAVOK M01/M03 Q1000 NOSIG RMK BLU BLU

Decode

TAF

TAF LKNA 152300Z 1600/1700 VRB02KT CAVOK BECMG 1604/1606 32008KT BECMG 1607/1609 BKN022 BECMG 1617/1619 VRB02KT CAVOK

Decode

Destination Runways

ID Width Length Bearing (true) Bearing (mag) Surface Threshold Offset Overrun Length
13 148 ft / 45 m 7,870 ft / 2,399 m 129.40° 125.15° Concrete 0 ft / 0 m 492 ft / 150 m
31 148 ft / 45 m 7,870 ft / 2,399 m 309.42° 305.17° Concrete 0 ft / 0 m 492 ft / 150 m

Approach Navaids

Runway Type Ident Frequency Range Bearing (true) Bearing (mag) Slope Elevation
31 Localiser LA 111.35 MHz 18 nm / 33 km 309.41° 305.16° - 1,548 ft / 472 m (AMSL)
31 Glidescope LA 111.35 MHz 10 nm / 19 km 309.41° 305.16° 3.00° 1,548 ft / 472 m (AMSL)
31 DME LA 111.35 MHz 18 nm / 33 km - - - 1,550 ft / 472 m (AMSL)

Popular Alternatives